sensor_id;sensor_type;location;lat;lon;timestamp;pressure;altitude;pressure_sealevel;temperature;humidity
61742;BME280;47650;49.848;9.620;2024-01-30T00:00:38;101099.13;;;1.30;100.00
61742;BME280;47650;49.848;9.620;2024-01-30T00:03:04;101094.81;;;1.29;100.00
61742;BME280;47650;49.848;9.620;2024-01-30T00:05:29;101090.59;;;1.25;100.00
61742;BME280;47650;49.848;9.620;2024-01-30T00:07:55;101100.06;;;1.28;100.00
61742;BME280;47650;49.848;9.620;2024-01-30T00:10:20;101093.69;;;1.37;100.00
61742;BME280;47650;49.848;9.620;2024-01-30T00:12:46;101098.84;;;1.40;100.00
61742;BME280;47650;49.848;9.620;2024-01-30T00:15:11;101102.16;;;1.45;100.00
61742;BME280;47650;49.848;9.620;2024-01-30T00:17:37;101093.16;;;1.27;100.00
61742;BME280;47650;49.848;9.620;2024-01-30T00:20:03;101099.53;;;1.45;100.00
61742;BME280;47650;49.848;9.620;2024-01-30T00:22:32;101097.13;;;1.39;100.00
61742;BME280;47650;49.848;9.620;2024-01-30T00:24:58;101084.25;;;1.33;100.00
61742;BME280;47650;49.848;9.620;2024-01-30T00:27:25;101091.00;;;1.40;100.00
61742;BME280;47650;49.848;9.620;2024-01-30T00:29:52;101099.53;;;1.45;100.00
61742;BME280;47650;49.848;9.620;2024-01-30T00:32:29;101093.59;;;1.40;100.00
61742;BME280;47650;49.848;9.620;2024-01-30T00:34:57;101100.47;;;1.44;100.00
61742;BME280;47650;49.848;9.620;2024-01-30T00:37:23;101059.69;;;1.11;100.00
61742;BME280;47650;49.848;9.620;2024-01-30T00:39:48;101103.22;;;1.39;100.00
61742;BME280;47650;49.848;9.620;2024-01-30T00:42:14;101081.00;;;1.26;100.00
61742;BME280;47650;49.848;9.620;2024-01-30T00:44:42;101093.03;;;1.31;100.00
61742;BME280;47650;49.848;9.620;2024-01-30T00:47:07;101092.19;;;1.29;100.00
61742;BME280;47650;49.848;9.620;2024-01-30T00:49:34;101091.25;;;1.32;100.00
61742;BME280;47650;49.848;9.620;2024-01-30T00:51:59;101098.91;;;1.37;100.00
61742;BME280;47650;49.848;9.620;2024-01-30T00:54:25;101074.91;;;1.25;100.00
61742;BME280;47650;49.848;9.620;2024-01-30T00:56:50;101030.38;;;1.02;100.00
61742;BME280;47650;49.848;9.620;2024-01-30T00:59:19;101082.50;;;1.33;100.00
61742;BME280;47650;49.848;9.620;2024-01-30T01:01:44;101089.34;;;1.37;100.00
61742;BME280;47650;49.848;9.620;2024-01-30T01:04:10;101085.84;;;1.37;100.00
61742;BME280;47650;49.848;9.620;2024-01-30T01:06:37;101098.63;;;1.46;100.00
61742;BME280;47650;49.848;9.620;2024-01-30T01:09:03;101082.25;;;1.41;100.00
61742;BME280;47650;49.848;9.620;2024-01-30T01:11:33;101103.78;;;1.49;100.00
61742;BME280;47650;49.848;9.620;2024-01-30T01:14:01;101101.09;;;1.50;100.00
61742;BME280;47650;49.848;9.620;2024-01-30T01:16:27;101096.72;;;1.51;100.00
61742;BME280;47650;49.848;9.620;2024-01-30T01:18:54;101026.78;;;1.06;100.00
61742;BME280;47650;49.848;9.620;2024-01-30T01:21:19;101078.91;;;1.37;100.00
61742;BME280;47650;49.848;9.620;2024-01-30T01:23:45;101099.34;;;1.51;100.00
61742;BME280;47650;49.848;9.620;2024-01-30T01:26:10;101104.47;;;1.54;100.00
61742;BME280;47650;49.848;9.620;2024-01-30T01:28:36;101114.00;;;1.55;100.00
61742;BME280;47650;49.848;9.620;2024-01-30T01:31:01;101100.03;;;1.56;100.00
61742;BME280;47650;49.848;9.620;2024-01-30T01:33:32;101106.97;;;1.57;100.00
61742;BME280;47650;49.848;9.620;2024-01-30T01:35:58;101066.72;;;1.36;100.00
61742;BME280;47650;49.848;9.620;2024-01-30T01:38:27;101100.78;;;1.60;100.00
61742;BME280;47650;49.848;9.620;2024-01-30T01:40:53;101100.03;;;1.56;100.00
61742;BME280;47650;49.848;9.620;2024-01-30T01:43:18;101103.47;;;1.58;100.00
61742;BME280;47650;49.848;9.620;2024-01-30T01:45:43;101104.31;;;1.59;100.00
61742;BME280;47650;49.848;9.620;2024-01-30T01:48:09;101100.91;;;1.57;100.00
61742;BME280;47650;49.848;9.620;2024-01-30T01:50:35;101042.75;;;1.23;100.00
61742;BME280;47650;49.848;9.620;2024-01-30T01:53:03;101064.16;;;1.35;99.91
61742;BME280;47650;49.848;9.620;2024-01-30T01:55:31;101102.75;;;1.53;100.00
61742;BME280;47650;49.848;9.620;2024-01-30T01:57:59;101088.94;;;1.49;100.00
61742;BME280;47650;49.848;9.620;2024-01-30T02:00:25;101010.41;;;1.01;100.00
61742;BME280;47650;49.848;9.620;2024-01-30T02:02:51;101073.81;;;1.33;97.34
61742;BME280;47650;49.848;9.620;2024-01-30T02:05:19;101086.38;;;1.48;99.28
61742;BME280;47650;49.848;9.620;2024-01-30T02:07:51;101082.88;;;1.49;99.32
61742;BME280;47650;49.848;9.620;2024-01-30T02:10:17;101052.94;;;1.31;99.25
61742;BME280;47650;49.848;9.620;2024-01-30T02:12:43;101076.09;;;1.42;99.22
61742;BME280;47650;49.848;9.620;2024-01-30T02:15:13;101081.25;;;1.45;99.35
61742;BME280;47650;49.848;9.620;2024-01-30T02:17:39;101090.91;;;1.43;99.13
61742;BME280;47650;49.848;9.620;2024-01-30T02:20:05;101086.38;;;1.48;99.25
61742;BME280;47650;49.848;9.620;2024-01-30T02:22:32;101090.28;;;1.35;98.67
61742;BME280;47650;49.848;9.620;2024-01-30T02:24:59;101083.81;;;1.46;98.53
61742;BME280;47650;49.848;9.620;2024-01-30T02:27:25;101021.44;;;1.09;97.96
61742;BME280;47650;49.848;9.620;2024-01-30T02:29:51;101061.66;;;1.31;97.68
61742;BME280;47650;49.848;9.620;2024-01-30T02:35:39;101083.38;;;1.34;97.99
61742;BME280;47650;49.848;9.620;2024-01-30T02:38:05;101001.56;;;0.78;98.26
61742;BME280;47650;49.848;9.620;2024-01-30T02:40:30;101057.06;;;1.11;97.37
61742;BME280;47650;49.848;9.620;2024-01-30T02:42:57;101048.53;;;1.06;98.32
61742;BME280;47650;49.848;9.620;2024-01-30T02:45:26;101078.63;;;1.18;97.75
61742;BME280;47650;49.848;9.620;2024-01-30T02:47:51;101043.75;;;0.92;97.75
61742;BME280;47650;49.848;9.620;2024-01-30T02:50:16;101047.97;;;0.97;98.72
61742;BME280;47650;49.848;9.620;2024-01-30T02:52:43;101048.19;;;0.90;98.40
61742;BME280;47650;49.848;9.620;2024-01-30T02:55:11;101092.09;;;1.06;98.63
61742;BME280;47650;49.848;9.620;2024-01-30T02:57:38;101035.50;;;0.78;99.01
61742;BME280;47650;49.848;9.620;2024-01-30T03:00:03;101078.28;;;1.02;99.12
61742;BME280;47650;49.848;9.620;2024-01-30T03:02:31;101079.22;;;1.00;99.38
61742;BME280;47650;49.848;9.620;2024-01-30T03:04:57;101069.06;;;0.90;99.03
61742;BME280;47650;49.848;9.620;2024-01-30T03:07:22;101057.19;;;0.80;99.37
61742;BME280;47650;49.848;9.620;2024-01-30T03:09:47;101069.25;;;0.84;99.72
61742;BME280;47650;49.848;9.620;2024-01-30T03:12:14;101059.00;;;0.78;99.50
61742;BME280;47650;49.848;9.620;2024-01-30T03:14:39;101070.97;;;0.85;99.91
61742;BME280;47650;49.848;9.620;2024-01-30T03:17:05;101077.13;;;0.83;99.81
61742;BME280;47650;49.848;9.620;2024-01-30T03:19:30;101069.44;;;0.78;99.85
61742;BME280;47650;49.848;9.620;2024-01-30T03:21:55;101011.31;;;0.43;99.33
61742;BME280;47650;49.848;9.620;2024-01-30T03:24:20;101034.09;;;0.38;99.67
61742;BME280;47650;49.848;9.620;2024-01-30T03:26:47;101067.00;;;0.72;99.67
61742;BME280;47650;49.848;9.620;2024-01-30T03:29:19;101009.94;;;0.31;100.00
61742;BME280;47650;49.848;9.620;2024-01-30T03:31:44;101072.44;;;0.66;100.00
61742;BME280;47650;49.848;9.620;2024-01-30T03:34:12;101058.88;;;0.53;99.85
61742;BME280;47650;49.848;9.620;2024-01-30T03:36:37;101037.53;;;0.40;99.93
61742;BME280;47650;49.848;9.620;2024-01-30T03:39:02;101053.75;;;0.50;100.00
61742;BME280;47650;49.848;9.620;2024-01-30T03:41:29;101071.81;;;0.58;100.00
61742;BME280;47650;49.848;9.620;2024-01-30T03:44:00;101074.50;;;0.54;100.00
61742;BME280;47650;49.848;9.620;2024-01-30T03:46:25;101071.03;;;0.54;100.00
61742;BME280;47650;49.848;9.620;2024-01-30T03:48:51;101075.41;;;0.52;100.00
61742;BME280;47650;49.848;9.620;2024-01-30T03:51:17;101071.97;;;0.51;100.00
61742;BME280;47650;49.848;9.620;2024-01-30T03:53:45;101072.06;;;0.48;100.00
61742;BME280;47650;49.848;9.620;2024-01-30T03:56:14;101073.84;;;0.46;100.00
61742;BME280;47650;49.848;9.620;2024-01-30T03:58:40;101058.28;;;0.43;100.00
61742;BME280;47650;49.848;9.620;2024-01-30T04:01:07;101078.28;;;0.44;100.00
61742;BME280;47650;49.848;9.620;2024-01-30T04:03:33;101069.63;;;0.42;100.00
61742;BME280;47650;49.848;9.620;2024-01-30T04:05:58;101069.59;;;0.44;100.00
61742;BME280;47650;49.848;9.620;2024-01-30T04:08:24;101025.25;;;0.14;100.00
61742;BME280;47650;49.848;9.620;2024-01-30T04:10:51;101070.59;;;0.38;100.00
61742;BME280;47650;49.848;9.620;2024-01-30T04:13:17;101050.28;;;0.20;100.00
61742;BME280;47650;49.848;9.620;2024-01-30T04:15:43;101073.38;;;0.33;100.00
61742;BME280;47650;49.848;9.620;2024-01-30T04:18:12;101028.91;;;0.07;100.00
61742;BME280;47650;49.848;9.620;2024-01-30T04:20:38;101070.81;;;0.32;100.00
61742;BME280;47650;49.848;9.620;2024-01-30T04:23:04;101069.03;;;0.32;100.00
61742;BME280;47650;49.848;9.620;2024-01-30T04:25:29;101063.78;;;0.34;100.00
61742;BME280;47650;49.848;9.620;2024-01-30T04:27:55;101062.25;;;0.27;100.00
61742;BME280;47650;49.848;9.620;2024-01-30T04:30:21;101057.03;;;0.27;100.00
61742;BME280;47650;49.848;9.620;2024-01-30T04:32:47;101046.63;;;0.25;100.00
61742;BME280;47650;49.848;9.620;2024-01-30T04:35:14;101008.06;;;0.05;100.00
61742;BME280;47650;49.848;9.620;2024-01-30T04:37:41;101053.63;;;0.25;100.00
61742;BME280;47650;49.848;9.620;2024-01-30T04:40:06;101052.75;;;0.24;100.00
61742;BME280;47650;49.848;9.620;2024-01-30T04:42:32;101032.34;;;0.09;100.00
61742;BME280;47650;49.848;9.620;2024-01-30T04:44:58;101060.56;;;0.24;100.00
61742;BME280;47650;49.848;9.620;2024-01-30T04:47:23;101076.09;;;0.29;100.00
61742;BME280;47650;49.848;9.620;2024-01-30T04:49:53;101068.31;;;0.27;100.00
61742;BME280;47650;49.848;9.620;2024-01-30T04:52:18;101053.13;;;0.10;100.00
61742;BME280;47650;49.848;9.620;2024-01-30T04:54:43;101072.84;;;0.21;100.00
61742;BME280;47650;49.848;9.620;2024-01-30T04:57:09;101079.03;;;0.18;100.00
61742;BME280;47650;49.848;9.620;2024-01-30T04:59:37;101073.88;;;0.15;100.00
61742;BME280;47650;49.848;9.620;2024-01-30T05:02:02;101079.94;;;0.15;100.00
61742;BME280;47650;49.848;9.620;2024-01-30T05:04:28;101069.59;;;0.14;100.00
61742;BME280;47650;49.848;9.620;2024-01-30T05:06:53;101016.56;;;-0.18;100.00
61742;BME280;47650;49.848;9.620;2024-01-30T05:09:18;101073.91;;;0.13;100.00
61742;BME280;47650;49.848;9.620;2024-01-30T05:11:45;101064.41;;;0.12;100.00
61742;BME280;47650;49.848;9.620;2024-01-30T05:14:10;101057.63;;;0.05;100.00
61742;BME280;47650;49.848;9.620;2024-01-30T05:16:36;101053.47;;;-0.02;100.00
61742;BME280;47650;49.848;9.620;2024-01-30T05:19:02;101071.16;;;-0.12;100.00
61742;BME280;47650;49.848;9.620;2024-01-30T05:21:27;101071.72;;;-0.02;100.00
61742;BME280;47650;49.848;9.620;2024-01-30T05:23:52;101046.00;;;-0.14;100.00
61742;BME280;47650;49.848;9.620;2024-01-30T05:26:18;101081.94;;;0.07;100.00
61742;BME280;47650;49.848;9.620;2024-01-30T05:28:44;101094.13;;;0.05;100.00
61742;BME280;47650;49.848;9.620;2024-01-30T05:31:12;101088.91;;;0.05;100.00
61742;BME280;47650;49.848;9.620;2024-01-30T05:33:37;101066.75;;;-0.10;100.00
61742;BME280;47650;49.848;9.620;2024-01-30T05:36:03;101077.81;;;-0.02;100.00
61742;BME280;47650;49.848;9.620;2024-01-30T05:38:28;101002.47;;;-0.44;100.00
61742;BME280;47650;49.848;9.620;2024-01-30T05:40:54;101087.25;;;0.03;100.00
61742;BME280;47650;49.848;9.620;2024-01-30T05:43:20;101056.44;;;-0.14;100.00
61742;BME280;47650;49.848;9.620;2024-01-30T05:45:45;101081.25;;;0.01;100.00
61742;BME280;47650;49.848;9.620;2024-01-30T05:48:11;101029.09;;;-0.31;100.00
61742;BME280;47650;49.848;9.620;2024-01-30T05:50:36;101078.59;;;0.02;100.00
61742;BME280;47650;49.848;9.620;2024-01-30T05:53:02;101069.31;;;-0.08;100.00
61742;BME280;47650;49.848;9.620;2024-01-30T05:55:27;101094.00;;;0.10;100.00
61742;BME280;47650;49.848;9.620;2024-01-30T05:57:52;101086.44;;;0.01;100.00
61742;BME280;47650;49.848;9.620;2024-01-30T06:00:18;101088.25;;;-0.02;100.00
61742;BME280;47650;49.848;9.620;2024-01-30T06:02:43;101075.34;;;-0.06;100.00
61742;BME280;47650;49.848;9.620;2024-01-30T06:05:09;101101.09;;;0.05;100.00
61742;BME280;47650;49.848;9.620;2024-01-30T06:07:34;100967.69;;;-0.74;100.00
61742;BME280;47650;49.848;9.620;2024-01-30T06:10:00;101088.16;;;0.02;100.00
61742;BME280;47650;49.848;9.620;2024-01-30T06:12:32;101078.66;;;-0.01;100.00
61742;BME280;47650;49.848;9.620;2024-01-30T06:14:57;101099.34;;;0.05;100.00
61742;BME280;47650;49.848;9.620;2024-01-30T06:17:23;101095.78;;;0.09;100.00
61742;BME280;47650;49.848;9.620;2024-01-30T06:19:49;101090.63;;;0.06;100.00
61742;BME280;47650;49.848;9.620;2024-01-30T06:22:15;101092.44;;;0.04;100.00
61742;BME280;47650;49.848;9.620;2024-01-30T06:24:43;101001.78;;;-0.50;100.00
61742;BME280;47650;49.848;9.620;2024-01-30T06:27:11;101083.16;;;-0.06;100.00
61742;BME280;47650;49.848;9.620;2024-01-30T06:29:38;101095.16;;;-0.01;100.00
61742;BME280;47650;49.848;9.620;2024-01-30T06:32:03;101096.13;;;-0.03;100.00
61742;BME280;47650;49.848;9.620;2024-01-30T06:34:32;101054.19;;;-0.28;100.00
61742;BME280;47650;49.848;9.620;2024-01-30T06:36:57;101097.78;;;-0.01;100.00
61742;BME280;47650;49.848;9.620;2024-01-30T06:39:22;100990.03;;;-0.65;100.00
61742;BME280;47650;49.848;9.620;2024-01-30T06:41:50;101097.72;;;0.01;100.00
61742;BME280;47650;49.848;9.620;2024-01-30T06:44:21;101094.38;;;-0.04;100.00
61742;BME280;47650;49.848;9.620;2024-01-30T06:46:46;101090.09;;;-0.05;100.00
61742;BME280;47650;49.848;9.620;2024-01-30T06:49:12;101100.38;;;-0.01;100.00
61742;BME280;47650;49.848;9.620;2024-01-30T06:51:37;101109.13;;;-0.02;100.00
61742;BME280;47650;49.848;9.620;2024-01-30T06:54:02;101107.38;;;-0.03;99.91
61742;BME280;47650;49.848;9.620;2024-01-30T06:56:28;101104.75;;;-0.01;100.00
61742;BME280;47650;49.848;9.620;2024-01-30T06:58:54;101105.56;;;0.01;100.00
61742;BME280;47650;49.848;9.620;2024-01-30T07:01:20;101071.25;;;-0.16;100.00
61742;BME280;47650;49.848;9.620;2024-01-30T07:03:48;100783.22;;;-1.88;100.00
61742;BME280;47650;49.848;9.620;2024-01-30T07:06:13;101106.28;;;0.06;100.00
61742;BME280;47650;49.848;9.620;2024-01-30T07:08:40;101038.72;;;-0.34;100.00
61742;BME280;47650;49.848;9.620;2024-01-30T07:11:06;101064.25;;;-0.14;100.00
61742;BME280;47650;49.848;9.620;2024-01-30T07:13:32;101101.66;;;0.17;100.00
61742;BME280;47650;49.848;9.620;2024-01-30T07:15:57;101105.81;;;0.23;100.00
61742;BME280;47650;49.848;9.620;2024-01-30T07:18:22;101102.09;;;0.32;100.00
61742;BME280;47650;49.848;9.620;2024-01-30T07:20:48;101105.31;;;0.42;100.00
61742;BME280;47650;49.848;9.620;2024-01-30T07:23:14;101102.59;;;0.45;99.29
61742;BME280;47650;49.848;9.620;2024-01-30T07:25:42;101114.38;;;0.60;99.26
61742;BME280;47650;49.848;9.620;2024-01-30T07:28:08;101109.66;;;0.71;99.80
61742;BME280;47650;49.848;9.620;2024-01-30T07:30:37;101116.25;;;0.84;99.83
61742;BME280;47650;49.848;9.620;2024-01-30T07:33:03;101120.19;;;0.98;99.91
61742;BME280;47650;49.848;9.620;2024-01-30T07:35:28;101106.88;;;1.05;99.26
61742;BME280;47650;49.848;9.620;2024-01-30T07:37:54;101111.63;;;1.21;98.50
61742;BME280;47650;49.848;9.620;2024-01-30T07:40:20;101110.47;;;1.29;97.93
61742;BME280;47650;49.848;9.620;2024-01-30T07:42:45;101051.94;;;1.08;96.43
61742;BME280;47650;49.848;9.620;2024-01-30T07:45:11;101119.09;;;1.60;96.23
61742;BME280;47650;49.848;9.620;2024-01-30T07:47:37;101110.97;;;1.67;95.27
61742;BME280;47650;49.848;9.620;2024-01-30T07:50:03;101042.97;;;1.44;93.90
61742;BME280;47650;49.848;9.620;2024-01-30T07:52:29;101117.78;;;1.98;91.94
61742;BME280;47650;49.848;9.620;2024-01-30T07:54:54;101049.72;;;1.75;92.41
61742;BME280;47650;49.848;9.620;2024-01-30T07:57:20;101116.16;;;2.19;92.10
61742;BME280;47650;49.848;9.620;2024-01-30T07:59:46;101104.25;;;2.36;92.03
61742;BME280;47650;49.848;9.620;2024-01-30T08:02:14;101112.59;;;2.45;90.97
61742;BME280;47650;49.848;9.620;2024-01-30T08:04:39;101111.97;;;2.62;90.54
61742;BME280;47650;49.848;9.620;2024-01-30T08:07:04;101091.44;;;2.52;87.35
61742;BME280;47650;49.848;9.620;2024-01-30T08:09:30;101110.50;;;2.79;89.03
61742;BME280;47650;49.848;9.620;2024-01-30T08:11:55;101118.13;;;1.89;89.11
61742;BME280;47650;49.848;9.620;2024-01-30T08:14:20;101086.81;;;1.86;90.89
61742;BME280;47650;49.848;9.620;2024-01-30T08:16:47;101141.31;;;2.72;91.94
61742;BME280;47650;49.848;9.620;2024-01-30T08:19:13;101123.28;;;3.10;92.87
61742;BME280;47650;49.848;9.620;2024-01-30T08:21:39;101099.91;;;3.26;91.95
61742;BME280;47650;49.848;9.620;2024-01-30T08:24:06;101056.63;;;3.38;90.66
61742;BME280;47650;49.848;9.620;2024-01-30T08:26:32;101082.00;;;3.79;90.19
61742;BME280;47650;49.848;9.620;2024-01-30T08:28:59;101040.75;;;3.82;85.54
61742;BME280;47650;49.848;9.620;2024-01-30T08:31:24;101039.63;;;4.08;80.88
61742;BME280;47650;49.848;9.620;2024-01-30T08:33:52;101096.78;;;4.79;75.58
61742;BME280;47650;49.848;9.620;2024-01-30T08:36:19;101054.69;;;4.98;73.53
61742;BME280;47650;49.848;9.620;2024-01-30T08:38:48;101098.88;;;5.80;73.94
61742;BME280;47650;49.848;9.620;2024-01-30T08:41:15;101027.53;;;5.52;71.25
61742;BME280;47650;49.848;9.620;2024-01-30T08:43:40;101096.72;;;5.54;65.02
61742;BME280;47650;49.848;9.620;2024-01-30T08:46:07;101098.34;;;5.91;67.71
61742;BME280;47650;49.848;9.620;2024-01-30T08:48:32;101091.59;;;5.33;67.75
61742;BME280;47650;49.848;9.620;2024-01-30T08:50:57;101010.88;;;4.62;70.64
61742;BME280;47650;49.848;9.620;2024-01-30T08:53:22;101108.47;;;4.34;74.25
61742;BME280;47650;49.848;9.620;2024-01-30T08:55:48;101058.34;;;3.60;79.11
61742;BME280;47650;49.848;9.620;2024-01-30T08:58:13;101075.91;;;3.99;83.99
61742;BME280;47650;49.848;9.620;2024-01-30T09:00:40;101104.06;;;4.74;83.22
61742;BME280;47650;49.848;9.620;2024-01-30T09:03:07;101098.41;;;4.44;80.80
61742;BME280;47650;49.848;9.620;2024-01-30T09:05:32;101097.59;;;5.18;82.61
61742;BME280;47650;49.848;9.620;2024-01-30T09:08:04;101110.50;;;5.76;72.93
61742;BME280;47650;49.848;9.620;2024-01-30T09:10:45;101073.03;;;6.39;69.37
61742;BME280;47650;49.848;9.620;2024-01-30T09:13:11;101103.94;;;5.85;68.60
61742;BME280;47650;49.848;9.620;2024-01-30T09:15:36;101106.09;;;6.12;66.49
61742;BME280;47650;49.848;9.620;2024-01-30T09:18:01;101108.59;;;6.31;70.46
61742;BME280;47650;49.848;9.620;2024-01-30T09:20:27;101126.88;;;4.91;72.98
61742;BME280;47650;49.848;9.620;2024-01-30T09:22:52;101116.81;;;5.01;74.77
61742;BME280;47650;49.848;9.620;2024-01-30T09:25:17;101116.41;;;4.32;79.21
61742;BME280;47650;49.848;9.620;2024-01-30T09:27:59;101131.97;;;4.37;80.25
61742;BME280;47650;49.848;9.620;2024-01-30T09:30:24;101112.63;;;4.40;78.76
61742;BME280;47650;49.848;9.620;2024-01-30T09:32:51;101080.81;;;4.84;81.36
61742;BME280;47650;49.848;9.620;2024-01-30T09:35:16;101133.66;;;5.16;78.09
61742;BME280;47650;49.848;9.620;2024-01-30T09:37:41;101135.81;;;5.79;78.81
61742;BME280;47650;49.848;9.620;2024-01-30T09:40:07;101133.34;;;6.28;77.57
61742;BME280;47650;49.848;9.620;2024-01-30T09:42:36;101131.13;;;6.70;73.61
61742;BME280;47650;49.848;9.620;2024-01-30T09:45:02;101122.91;;;7.08;69.41
61742;BME280;47650;49.848;9.620;2024-01-30T09:47:32;101069.28;;;7.23;65.48
61742;BME280;47650;49.848;9.620;2024-01-30T09:49:58;101111.81;;;7.94;63.56
61742;BME280;47650;49.848;9.620;2024-01-30T09:52:25;101116.88;;;8.56;62.48
61742;BME280;47650;49.848;9.620;2024-01-30T09:54:51;101111.09;;;8.78;58.72
61742;BME280;47650;49.848;9.620;2024-01-30T09:57:17;101111.16;;;8.91;57.78
61742;BME280;47650;49.848;9.620;2024-01-30T09:59:42;101116.41;;;9.19;58.54
61742;BME280;47650;49.848;9.620;2024-01-30T10:02:09;101109.28;;;9.20;55.14
61742;BME280;47650;49.848;9.620;2024-01-30T10:04:35;101090.06;;;9.31;54.75
61742;BME280;47650;49.848;9.620;2024-01-30T10:07:02;101113.69;;;9.74;54.56
61742;BME280;47650;49.848;9.620;2024-01-30T10:09:27;101049.09;;;9.76;54.26
61742;BME280;47650;49.848;9.620;2024-01-30T10:11:53;101091.50;;;10.28;53.40
61742;BME280;47650;49.848;9.620;2024-01-30T10:14:18;101104.19;;;10.61;50.17
61742;BME280;47650;49.848;9.620;2024-01-30T10:16:46;101054.28;;;10.42;49.62
61742;BME280;47650;49.848;9.620;2024-01-30T10:19:11;101104.50;;;11.06;50.40
61742;BME280;47650;49.848;9.620;2024-01-30T10:21:37;101086.09;;;10.92;49.06
61742;BME280;47650;49.848;9.620;2024-01-30T10:24:03;101102.94;;;10.54;50.95
61742;BME280;47650;49.848;9.620;2024-01-30T10:26:30;101057.88;;;10.54;50.94
61742;BME280;47650;49.848;9.620;2024-01-30T10:28:59;101050.28;;;10.73;50.38
61742;BME280;47650;49.848;9.620;2024-01-30T10:31:27;101097.06;;;9.32;52.20
61742;BME280;47650;49.848;9.620;2024-01-30T10:33:54;101094.44;;;7.45;60.64
61742;BME280;47650;49.848;9.620;2024-01-30T10:36:24;101107.16;;;7.52;64.38
61742;BME280;47650;49.848;9.620;2024-01-30T10:38:57;101110.81;;;7.04;67.19
61742;BME280;47650;49.848;9.620;2024-01-30T10:41:26;101102.06;;;6.87;66.95
61742;BME280;47650;49.848;9.620;2024-01-30T10:44:10;101094.31;;;8.36;64.94
61742;BME280;47650;49.848;9.620;2024-01-30T10:46:38;101090.88;;;9.18;63.43
61742;BME280;47650;49.848;9.620;2024-01-30T10:49:04;101080.56;;;9.81;57.46
61742;BME280;47650;49.848;9.620;2024-01-30T10:51:31;101088.81;;;8.10;60.49
61742;BME280;47650;49.848;9.620;2024-01-30T10:53:57;101088.31;;;7.44;66.55
61742;BME280;47650;49.848;9.620;2024-01-30T10:56:24;101073.47;;;8.45;65.16
61742;BME280;47650;49.848;9.620;2024-01-30T10:58:51;101077.78;;;7.89;63.60
61742;BME280;47650;49.848;9.620;2024-01-30T11:01:21;101062.28;;;8.40;62.43
61742;BME280;47650;49.848;9.620;2024-01-30T11:03:53;101082.66;;;7.95;63.34
61742;BME280;47650;49.848;9.620;2024-01-30T11:06:22;101073.75;;;8.97;62.25
61742;BME280;47650;49.848;9.620;2024-01-30T11:09:00;101074.16;;;9.18;58.71
61742;BME280;47650;49.848;9.620;2024-01-30T11:11:26;101067.81;;;8.93;57.44
61742;BME280;47650;49.848;9.620;2024-01-30T11:13:51;101072.88;;;8.69;60.15
61742;BME280;47650;49.848;9.620;2024-01-30T11:16:21;101060.72;;;9.74;60.59
61742;BME280;47650;49.848;9.620;2024-01-30T11:18:50;101057.88;;;10.41;58.05
61742;BME280;47650;49.848;9.620;2024-01-30T11:21:19;100986.31;;;10.15;53.70
61742;BME280;47650;49.848;9.620;2024-01-30T11:23:44;101041.56;;;11.44;50.98
61742;BME280;47650;49.848;9.620;2024-01-30T11:26:12;100996.97;;;11.25;50.05
61742;BME280;47650;49.848;9.620;2024-01-30T11:28:38;101008.13;;;11.06;49.78
61742;BME280;47650;49.848;9.620;2024-01-30T11:31:06;100985.28;;;11.97;50.19
61742;BME280;47650;49.848;9.620;2024-01-30T11:33:32;101032.94;;;11.29;51.33
61742;BME280;47650;49.848;9.620;2024-01-30T11:36:00;101029.03;;;12.15;50.63
61742;BME280;47650;49.848;9.620;2024-01-30T11:38:28;101024.09;;;11.64;49.32
61742;BME280;47650;49.848;9.620;2024-01-30T11:40:54;101022.44;;;11.74;49.62
61742;BME280;47650;49.848;9.620;2024-01-30T11:43:23;100961.50;;;11.37;49.60
61742;BME280;47650;49.848;9.620;2024-01-30T11:45:49;101029.97;;;11.09;49.73
61742;BME280;47650;49.848;9.620;2024-01-30T11:48:14;101038.25;;;10.81;50.93
61742;BME280;47650;49.848;9.620;2024-01-30T11:50:40;100946.41;;;10.91;50.95
61742;BME280;47650;49.848;9.620;2024-01-30T11:53:06;101022.03;;;11.56;50.00
61742;BME280;47650;49.848;9.620;2024-01-30T11:55:33;101025.03;;;12.21;47.97
61742;BME280;47650;49.848;9.620;2024-01-30T11:57:59;101015.25;;;12.88;47.43
61742;BME280;47650;49.848;9.620;2024-01-30T12:00:27;100965.97;;;12.93;44.85
61742;BME280;47650;49.848;9.620;2024-01-30T12:02:53;101012.13;;;11.70;47.86
61742;BME280;47650;49.848;9.620;2024-01-30T12:05:25;101005.59;;;13.82;45.22
61742;BME280;47650;49.848;9.620;2024-01-30T12:07:51;100995.28;;;13.47;43.65
61742;BME280;47650;49.848;9.620;2024-01-30T12:10:16;100948.00;;;15.29;41.45
61742;BME280;47650;49.848;9.620;2024-01-30T12:12:45;100987.63;;;16.10;39.76
61742;BME280;47650;49.848;9.620;2024-01-30T12:15:12;100957.34;;;15.82;39.96
61742;BME280;47650;49.848;9.620;2024-01-30T12:17:37;100903.75;;;15.64;39.04
61742;BME280;47650;49.848;9.620;2024-01-30T12:20:13;100961.91;;;15.52;39.74
61742;BME280;47650;49.848;9.620;2024-01-30T12:22:44;100931.75;;;15.03;39.76
61742;BME280;47650;49.848;9.620;2024-01-30T12:25:13;100913.50;;;14.89;40.40
61742;BME280;47650;49.848;9.620;2024-01-30T12:27:42;100960.84;;;14.87;40.98
61742;BME280;47650;49.848;9.620;2024-01-30T12:30:12;100953.75;;;14.46;41.84
61742;BME280;47650;49.848;9.620;2024-01-30T12:32:42;100982.28;;;13.75;42.09
61742;BME280;47650;49.848;9.620;2024-01-30T12:35:17;100979.78;;;12.44;45.47
61742;BME280;47650;49.848;9.620;2024-01-30T12:37:43;100951.59;;;13.17;45.83
61742;BME280;47650;49.848;9.620;2024-01-30T12:40:10;100978.81;;;12.88;45.09
61742;BME280;47650;49.848;9.620;2024-01-30T12:42:37;100942.81;;;13.05;45.43
61742;BME280;47650;49.848;9.620;2024-01-30T12:45:03;100932.34;;;12.92;45.51
61742;BME280;47650;49.848;9.620;2024-01-30T12:47:29;100906.59;;;13.14;46.02
61742;BME280;47650;49.848;9.620;2024-01-30T12:49:54;100962.09;;;13.82;46.05
61742;BME280;47650;49.848;9.620;2024-01-30T12:52:21;100929.47;;;13.68;44.66